Calvary, Georgia
Current Conditions -  °F | °C
As of 6:15 AM on Saturday 20 Dec 2014 (Local Time) from K2J9 Reporting Station
Overcast Overcast  
Wind Chill: 46°   Ceiling: 7000
Heat Index: 48°   Visibility: 10mi
Dew Point: 46°   Wind: 5mph
Humidity: 93%   Direction: 100°E
Pressure: 30.12"   Gusts: NA
Location:  30.73°N, 84.35°W
Report Text: K2J9 201115Z AUTO 10004KT 10SM OVC070 09/08 A3012 RMK AO1 P0169
Loading
Personal Weather Stations






























Interactive Weather Map New forecast layout! Learn more

10-Day Weather Forecast

Advertisements
Track Severe Weather on mobile